Time;durP1;ratioP1;P1;durP2;ratioP2;P2;SDS_P1;SDS_P2;PMS_P1;PMS_P2;Temp;Humidity;BMP_temperature;BMP_pressure;BME280_temperature;BME280_humidity;BME280_pressure;Samples;Min_cycle;Max_cycle;Signal;HPM_P1;HPM_P2
2022/05/25 00:01:57;;;;;;;123.18;111.57;;;12.90;94.10;;;;;;5013110;28;20054;-73
2022/05/25 00:04:24;;;;;;;123.47;111.70;;;12.80;94.10;;;;;;5013029;28;20078;-73
2022/05/25 00:06:51;;;;;;;122.40;111.20;;;12.80;94.20;;;;;;5012992;28;20766;-73
2022/05/25 00:09:18;;;;;;;123.18;111.85;;;12.80;94.30;;;;;;5014473;28;20482;-73
2022/05/25 00:11:46;;;;;;;124.65;113.20;;;12.70;94.30;;;;;;5012057;28;20039;-73
2022/05/25 00:14:13;;;;;;;123.45;112.00;;;12.60;94.40;;;;;;5014314;28;20058;-73
2022/05/25 00:16:40;;;;;;;123.88;112.28;;;12.60;94.50;;;;;;5029377;28;20061;-73
2022/05/25 00:21:52;;;;;;;123.97;112.20;;;12.60;94.60;;;;;;5012837;28;20440;-73
2022/05/25 00:24:19;;;;;;;123.28;111.95;;;12.50;94.70;;;;;;5012912;28;20129;-73
2022/05/25 00:26:47;;;;;;;124.50;112.70;;;12.50;94.80;;;;;;5012808;28;20054;-73
2022/05/25 00:29:15;;;;;;;123.45;112.05;;;12.50;94.90;;;;;;5029049;28;20050;-73
2022/05/25 00:31:42;;;;;;;122.45;111.15;;;12.40;94.90;;;;;;5012705;28;20113;-73
2022/05/25 00:34:09;;;;;;;123.15;111.70;;;12.40;94.90;;;;;;5029014;28;20066;-72
2022/05/25 00:36:37;;;;;;;121.95;110.55;;;12.40;95.00;;;;;;5013852;28;20168;-72
2022/05/25 00:39:05;;;;;;;123.03;111.63;;;12.30;95.00;;;;;;5028886;28;20651;-73
2022/05/25 00:41:33;;;;;;;121.32;109.85;;;12.30;95.20;;;;;;5013605;28;20047;-73
2022/05/25 00:44:01;;;;;;;125.13;113.30;;;12.30;95.20;;;;;;5030636;28;20050;-73
2022/05/25 00:46:30;;;;;;;122.40;111.15;;;12.30;95.20;;;;;;5032270;28;20558;-73
2022/05/25 00:49:01;;;;;;;122.85;111.50;;;12.20;95.20;;;;;;5032029;28;20046;-73
2022/05/25 00:51:31;;;;;;;122.07;110.63;;;12.20;95.30;;;;;;5032255;28;20049;-72
2022/05/25 00:54:01;;;;;;;122.53;111.13;;;12.20;95.50;;;;;;5048497;28;20057;-73
2022/05/25 00:56:30;;;;;;;121.78;110.38;;;12.20;95.40;;;;;;5031926;28;20132;-73
2022/05/25 00:59:02;;;;;;;121.85;110.55;;;12.10;95.60;;;;;;5032194;28;20050;-73
2022/05/25 01:01:31;;;;;;;122.03;110.28;;;12.10;95.60;;;;;;5032471;28;20052;-73
2022/05/25 01:03:58;;;;;;;121.32;109.97;;;12.10;95.60;;;;;;5048688;28;20542;-72
2022/05/25 01:06:41;;;;;;;123.07;111.47;;;12.00;95.60;;;;;;5032031;28;20129;-73
2022/05/25 01:09:17;;;;;;;122.55;110.95;;;12.00;95.70;;;;;;5048211;28;20038;-73
2022/05/25 01:11:56;;;;;;;122.30;110.90;;;12.00;95.70;;;;;;5033302;28;20050;-73
2022/05/25 01:14:39;;;;;;;122.68;111.20;;;12.00;95.70;;;;;;5047967;28;20060;-73
2022/05/25 01:17:16;;;;;;;123.70;112.13;;;12.00;95.80;;;;;;5032464;28;20500;-73
2022/05/25 01:20:05;;;;;;;121.35;109.95;;;11.90;95.80;;;;;;5031307;28;20058;-73
2022/05/25 01:23:00;;;;;;;121.40;110.03;;;11.90;95.80;;;;;;5031486;28;20050;-73
2022/05/25 01:26:09;;;;;;;122.07;110.40;;;11.90;95.80;;;;;;5018455;28;20056;-73
2022/05/25 01:28:48;;;;;;;123.15;111.55;;;11.80;95.90;;;;;;5031255;28;20352;-73
2022/05/25 01:31:23;;;;;;;122.25;110.75;;;11.80;95.90;;;;;;5033340;28;20133;-73
2022/05/25 01:33:55;;;;;;;120.90;109.60;;;11.80;96.00;;;;;;5014782;28;20052;-73
2022/05/25 01:36:29;;;;;;;123.60;111.80;;;11.80;96.00;;;;;;5032988;28;20513;-73
2022/05/25 01:39:01;;;;;;;122.95;111.38;;;11.80;96.00;;;;;;5031273;28;20060;-73
2022/05/25 01:41:35;;;;;;;123.15;111.45;;;11.80;96.10;;;;;;5048599;28;20100;-73
2022/05/25 01:44:07;;;;;;;125.22;113.35;;;11.70;96.10;;;;;;5031549;28;20579;-73
2022/05/25 01:46:41;;;;;;;124.47;112.82;;;11.70;96.20;;;;;;5048323;28;20046;-73
2022/05/25 01:49:11;;;;;;;124.82;113.03;;;11.70;96.20;;;;;;5014680;28;20045;-72
2022/05/25 01:51:43;;;;;;;124.25;112.38;;;11.70;96.30;;;;;;5040268;28;20049;-73
2022/05/25 01:54:14;;;;;;;125.18;113.40;;;11.70;96.30;;;;;;5010984;28;20057;-73
2022/05/25 01:56:46;;;;;;;122.53;111.03;;;11.60;96.30;;;;;;5012421;28;20062;-73
2022/05/25 01:59:17;;;;;;;124.22;112.53;;;11.60;96.30;;;;;;5012929;28;20050;-73
2022/05/25 02:04:19;;;;;;;123.60;111.88;;;11.60;96.40;;;;;;5028023;28;20060;-73
2022/05/25 02:04:42;;;;;;;124.57;112.78;;;11.60;96.40;;;;;;5011012;28;20050;-73
2022/05/25 02:07:21;;;;;;;127.13;115.03;;;11.50;96.40;;;;;;5012461;28;20073;-73
2022/05/25 02:10:18;;;;;;;122.65;111.07;;;11.50;96.40;;;;;;5012903;28;20097;-73
2022/05/25 02:12:59;;;;;;;121.40;109.90;;;11.40;96.50;;;;;;5012186;28;20053;-73
2022/05/25 02:15:34;;;;;;;123.57;111.85;;;11.40;96.50;;;;;;5046875;23;20059;-73
2022/05/25 02:18:08;;;;;;;123.57;111.82;;;11.40;96.50;;;;;;4992330;28;20093;-73
2022/05/25 02:20:48;;;;;;;124.20;112.43;;;11.40;96.50;;;;;;4991537;28;20058;-73
2022/05/25 02:23:20;;;;;;;125.05;113.15;;;11.40;96.60;;;;;;4996380;28;20592;-73
2022/05/25 02:25:51;;;;;;;126.55;114.55;;;11.30;96.60;;;;;;4994987;28;20086;-73
2022/05/25 02:28:24;;;;;;;124.82;112.82;;;11.40;96.70;;;;;;4996096;28;20065;-73
2022/05/25 02:30:56;;;;;;;124.20;112.35;;;11.30;96.70;;;;;;4996399;28;20586;-72
2022/05/25 02:33:28;;;;;;;125.57;113.68;;;11.30;96.70;;;;;;4996449;28;20081;-73
2022/05/25 02:35:58;;;;;;;125.88;113.95;;;11.30;96.80;;;;;;5010964;28;20053;-72
2022/05/25 02:38:25;;;;;;;125.50;113.60;;;11.30;96.80;;;;;;4994720;28;20557;-73
2022/05/25 02:41:03;;;;;;;125.80;113.60;;;11.30;96.80;;;;;;5011507;28;20057;-73
2022/05/25 02:43:30;;;;;;;125.68;113.78;;;11.30;96.90;;;;;;4995099;28;20162;-72
2022/05/25 02:45:58;;;;;;;125.93;113.88;;;11.30;96.80;;;;;;4994727;28;20055;-73
2022/05/25 02:48:27;;;;;;;126.75;114.60;;;11.20;96.80;;;;;;5010647;28;20047;-73
2022/05/25 02:50:54;;;;;;;126.22;114.30;;;11.20;96.90;;;;;;5010921;28;20054;-72
2022/05/25 02:53:22;;;;;;;127.63;115.32;;;11.20;96.90;;;;;;5010763;28;20095;-73
2022/05/25 02:55:49;;;;;;;127.85;115.63;;;11.20;96.90;;;;;;4995439;28;20043;-72
2022/05/25 02:58:16;;;;;;;127.85;115.65;;;11.20;96.90;;;;;;4994382;28;20474;-72
2022/05/25 03:00:43;;;;;;;126.93;114.82;;;11.20;97.00;;;;;;4994180;28;20061;-72
2022/05/25 03:03:12;;;;;;;128.23;115.93;;;11.10;97.00;;;;;;4994144;28;20057;-72
2022/05/25 03:05:41;;;;;;;127.35;115.05;;;11.20;97.10;;;;;;4995368;28;20061;-72
2022/05/25 03:08:09;;;;;;;128.45;116.05;;;11.20;97.10;;;;;;5010395;28;20501;-72
2022/05/25 03:10:36;;;;;;;127.93;115.63;;;11.10;97.10;;;;;;4994280;28;20074;-72
2022/05/25 03:13:05;;;;;;;127.35;115.05;;;11.10;97.10;;;;;;4994294;28;20049;-72
2022/05/25 03:15:38;;;;;;;125.85;113.38;;;11.10;97.10;;;;;;5011813;28;20138;-72
2022/05/25 03:18:06;;;;;;;127.90;115.60;;;11.10;97.10;;;;;;4993840;28;20516;-72
2022/05/25 03:20:33;;;;;;;127.45;115.07;;;11.10;97.20;;;;;;4995658;28;20062;-72
2022/05/25 03:23:01;;;;;;;128.50;116.05;;;11.10;97.20;;;;;;4994079;28;20619;-72
2022/05/25 03:25:28;;;;;;;126.43;114.22;;;11.10;97.20;;;;;;4994381;28;20055;-72
2022/05/25 03:27:55;;;;;;;127.30;115.05;;;11.10;97.30;;;;;;4994642;28;20424;-72
2022/05/25 03:30:23;;;;;;;129.93;117.28;;;11.00;97.20;;;;;;4993742;28;20417;-72
2022/05/25 03:32:50;;;;;;;129.50;117.10;;;11.00;97.30;;;;;;5010000;28;20051;-72
2022/05/25 03:35:17;;;;;;;128.88;116.53;;;11.00;97.30;;;;;;5014510;28;20053;-72
2022/05/25 03:37:44;;;;;;;128.93;116.53;;;11.00;97.30;;;;;;5013022;28;20066;-72
2022/05/25 03:40:15;;;;;;;130.18;117.57;;;11.00;97.40;;;;;;5014699;28;20447;-72
2022/05/25 03:42:43;;;;;;;128.88;116.43;;;11.00;97.40;;;;;;5012973;28;20547;-72
2022/05/25 03:45:11;;;;;;;129.05;116.40;;;11.00;97.40;;;;;;5013419;28;20068;-72
2022/05/25 03:47:38;;;;;;;128.55;116.00;;;11.00;97.50;;;;;;5012909;28;20042;-72
2022/05/25 03:50:05;;;;;;;130.15;117.40;;;11.00;97.50;;;;;;5014733;28;20100;-72
2022/05/25 03:52:32;;;;;;;129.20;116.72;;;10.90;97.50;;;;;;5013320;28;20054;-72
2022/05/25 03:54:59;;;;;;;130.05;117.55;;;10.90;97.60;;;;;;5013260;28;20057;-72
2022/05/25 03:57:28;;;;;;;129.93;117.22;;;10.90;97.60;;;;;;5014174;28;20054;-72
2022/05/25 03:59:55;;;;;;;128.13;115.63;;;10.90;97.60;;;;;;5013564;28;20507;-72
2022/05/25 04:02:22;;;;;;;129.55;117.13;;;10.90;97.60;;;;;;5013036;28;20061;-72
2022/05/25 04:05:07;;;;;;;127.15;114.85;;;10.90;97.60;;;;;;5013395;28;20134;-72
2022/05/25 04:07:35;;;;;;;128.95;116.45;;;10.90;97.60;;;;;;5009212;28;20058;-72
2022/05/25 04:10:03;;;;;;;128.20;115.78;;;10.90;97.70;;;;;;5013332;28;20105;-72
2022/05/25 04:12:34;;;;;;;127.85;115.60;;;10.90;97.70;;;;;;5014177;28;20050;-72
2022/05/25 04:15:01;;;;;;;129.57;117.07;;;10.90;97.80;;;;;;5013785;28;20089;-72
2022/05/25 04:17:28;;;;;;;128.45;116.20;;;10.90;97.70;;;;;;5012409;28;20061;-72
2022/05/25 04:19:56;;;;;;;129.05;116.68;;;10.90;97.70;;;;;;5012576;28;20046;-72
2022/05/25 04:22:23;;;;;;;126.93;114.63;;;10.90;97.80;;;;;;5012914;28;20046;-72
2022/05/25 04:24:50;;;;;;;128.40;116.10;;;10.90;97.80;;;;;;5012484;28;20514;-72
2022/05/25 04:27:16;;;;;;;129.20;116.90;;;10.80;97.80;;;;;;5012456;28;20129;-72
2022/05/25 04:29:45;;;;;;;126.93;114.63;;;10.90;98.00;;;;;;5012715;28;20050;-72
2022/05/25 04:32:12;;;;;;;127.82;115.55;;;10.90;98.00;;;;;;5013987;28;20060;-72
2022/05/25 04:34:39;;;;;;;128.52;116.18;;;10.90;98.10;;;;;;5014013;28;20054;-72
2022/05/25 04:39:50;;;;;;;135.97;122.93;;;10.90;98.10;;;;;;5010161;28;20077;-73
2022/05/25 04:42:17;;;;;;;129.07;116.20;;;11.00;98.20;;;;;;5009389;28;20261;-72
2022/05/25 04:44:45;;;;;;;128.93;116.57;;;11.00;98.20;;;;;;5008835;28;20055;-72
2022/05/25 04:47:12;;;;;;;129.20;117.00;;;11.00;98.20;;;;;;5008878;28;20061;-72
2022/05/25 04:49:43;;;;;;;131.60;119.10;;;11.00;98.30;;;;;;5009489;28;20846;-72
2022/05/25 04:52:11;;;;;;;128.02;115.70;;;11.00;98.30;;;;;;4984527;28;20055;-72
2022/05/25 04:54:38;;;;;;;128.20;115.93;;;11.10;98.30;;;;;;4981851;28;20054;-72
2022/05/25 04:57:20;;;;;;;130.90;118.47;;;11.10;98.40;;;;;;4982249;28;20059;-72
2022/05/25 04:59:48;;;;;;;130.80;118.00;;;11.10;98.40;;;;;;4982781;28;20044;-72
2022/05/25 05:02:16;;;;;;;129.10;116.50;;;11.10;98.40;;;;;;4985224;28;20137;-72
2022/05/25 05:04:43;;;;;;;130.95;118.22;;;11.20;98.50;;;;;;4993534;28;20130;-71
2022/05/25 05:07:11;;;;;;;133.27;120.57;;;11.20;98.50;;;;;;4992132;28;20085;-72
2022/05/25 05:09:40;;;;;;;129.35;116.65;;;11.20;98.50;;;;;;4982781;28;20082;-72
2022/05/25 05:12:07;;;;;;;129.27;116.47;;;11.30;98.60;;;;;;4981887;28;20053;-72
2022/05/25 05:14:34;;;;;;;132.40;119.80;;;11.30;98.60;;;;;;4981534;28;20053;-71
2022/05/25 05:17:05;;;;;;;131.23;118.25;;;11.30;98.60;;;;;;4981181;28;20095;-72
2022/05/25 05:19:52;;;;;;;130.85;118.20;;;11.40;98.60;;;;;;4999107;28;20066;-72
2022/05/25 05:22:20;;;;;;;129.82;117.43;;;11.40;98.60;;;;;;4971189;28;20134;-72
2022/05/25 05:24:46;;;;;;;128.90;116.13;;;11.40;98.70;;;;;;4991698;28;20081;-72
2022/05/25 05:27:13;;;;;;;131.18;118.45;;;11.50;98.80;;;;;;4992828;28;20051;-72
2022/05/25 05:29:40;;;;;;;130.18;117.68;;;11.50;98.80;;;;;;4992912;28;20085;-71
2022/05/25 05:32:10;;;;;;;129.88;117.53;;;11.60;98.80;;;;;;4980305;28;20054;-72
2022/05/25 05:34:37;;;;;;;128.40;115.63;;;11.60;98.90;;;;;;4980646;28;21006;-72
2022/05/25 05:37:07;;;;;;;132.50;119.95;;;11.60;98.90;;;;;;4926838;28;22605;-72
2022/05/25 05:39:37;;;;;;;129.48;116.97;;;11.70;98.90;;;;;;5007994;28;20057;-72
2022/05/25 05:42:07;;;;;;;129.38;117.07;;;11.80;99.00;;;;;;4991340;28;20049;-73
2022/05/25 05:44:38;;;;;;;130.40;117.70;;;11.90;99.10;;;;;;4990889;28;20120;-72
2022/05/25 05:47:11;;;;;;;132.27;119.28;;;11.90;99.10;;;;;;5002786;28;20253;-73
2022/05/25 05:49:43;;;;;;;134.52;121.85;;;12.00;99.00;;;;;;5000976;28;20138;-72
2022/05/25 05:52:11;;;;;;;129.43;116.85;;;12.00;99.00;;;;;;5020182;28;20599;-72
2022/05/25 05:54:39;;;;;;;129.93;117.45;;;12.00;99.10;;;;;;5009099;28;20038;-72
2022/05/25 05:57:07;;;;;;;129.60;117.28;;;12.10;99.10;;;;;;5002277;28;20822;-74
2022/05/25 05:59:34;;;;;;;130.35;117.57;;;12.20;99.00;;;;;;5002895;28;20057;-73
2022/05/25 06:02:01;;;;;;;129.48;117.00;;;12.20;98.90;;;;;;5006708;28;20530;-74
2022/05/25 06:04:29;;;;;;;130.30;117.65;;;12.20;99.00;;;;;;5013309;28;20050;-74
2022/05/25 06:06:56;;;;;;;130.63;118.07;;;12.30;99.00;;;;;;5004985;28;20042;-72
2022/05/25 06:09:23;;;;;;;129.40;116.88;;;12.30;99.00;;;;;;4998144;28;20513;-73
2022/05/25 06:11:50;;;;;;;129.15;116.72;;;12.40;99.00;;;;;;4998608;28;20386;-73
2022/05/25 06:14:16;;;;;;;135.25;121.88;;;12.50;99.00;;;;;;5001895;28;20146;-73
2022/05/25 06:19:33;;;;;;;129.05;116.45;;;12.50;99.00;;;;;;5005923;28;20141;-72
2022/05/25 06:22:02;;;;;;;131.90;118.70;;;12.60;98.90;;;;;;5004965;28;20050;-72
2022/05/25 06:24:31;;;;;;;131.00;118.13;;;12.60;99.00;;;;;;5003264;28;20054;-72
2022/05/25 06:26:58;;;;;;;132.02;119.63;;;12.70;99.00;;;;;;5001969;28;20157;-73
2022/05/25 06:29:25;;;;;;;132.77;120.00;;;12.70;99.00;;;;;;4995224;28;20473;-73
2022/05/25 06:31:52;;;;;;;132.95;120.20;;;12.70;99.00;;;;;;5027687;28;20053;-73
2022/05/25 06:34:19;;;;;;;132.60;119.88;;;12.80;98.90;;;;;;5007319;28;20129;-73
2022/05/25 06:36:49;;;;;;;134.20;121.28;;;12.90;98.90;;;;;;5024379;28;20070;-74
2022/05/25 06:39:17;;;;;;;129.27;116.97;;;12.90;98.90;;;;;;5004053;28;20141;-73
2022/05/25 06:41:43;;;;;;;130.00;117.60;;;13.00;98.80;;;;;;5019446;28;20120;-72
2022/05/25 06:44:11;;;;;;;129.73;117.40;;;13.00;98.80;;;;;;5003890;28;20058;-73
2022/05/25 06:46:37;;;;;;;129.70;117.50;;;13.10;98.70;;;;;;5004459;28;20077;-72
2022/05/25 06:49:05;;;;;;;130.52;117.80;;;13.10;98.60;;;;;;5009016;28;20051;-73
2022/05/25 06:51:34;;;;;;;131.25;118.35;;;13.20;98.50;;;;;;5030290;28;20828;-72
2022/05/25 06:54:04;;;;;;;130.18;117.78;;;13.20;98.40;;;;;;5014087;28;20129;-73
2022/05/25 06:56:31;;;;;;;132.45;119.63;;;13.30;98.50;;;;;;5013052;28;20518;-73
2022/05/25 06:58:59;;;;;;;128.25;116.13;;;13.30;98.40;;;;;;5011869;28;20057;-73
2022/05/25 07:01:26;;;;;;;130.88;118.18;;;13.40;98.40;;;;;;5012609;28;20054;-73
2022/05/25 07:03:54;;;;;;;131.25;118.65;;;13.40;98.40;;;;;;5012722;28;20061;-72
2022/05/25 07:06:23;;;;;;;128.60;116.28;;;13.40;98.40;;;;;;5014361;28;20425;-72
2022/05/25 07:08:50;;;;;;;128.25;116.05;;;13.50;98.20;;;;;;5012907;28;20125;-73
2022/05/25 07:11:19;;;;;;;127.13;115.07;;;13.60;97.90;;;;;;5013478;28;20057;-73
2022/05/25 07:13:46;;;;;;;127.35;115.38;;;13.60;97.70;;;;;;5014732;28;20055;-72
2022/05/25 07:16:15;;;;;;;125.80;113.78;;;13.70;97.60;;;;;;5013168;28;20508;-74
2022/05/25 07:18:43;;;;;;;126.13;114.32;;;13.70;97.60;;;;;;5013744;28;20050;-74
2022/05/25 07:21:13;;;;;;;127.60;115.28;;;13.80;97.30;;;;;;5013117;28;20063;-74
2022/05/25 07:23:42;;;;;;;126.82;115.05;;;13.80;97.10;;;;;;5014108;28;20478;-74
2022/05/25 07:26:11;;;;;;;129.65;117.35;;;13.80;97.00;;;;;;5012964;28;20050;-74
2022/05/25 07:28:40;;;;;;;126.75;114.60;;;13.90;97.10;;;;;;5012721;28;20102;-74
2022/05/25 07:31:09;;;;;;;126.70;114.90;;;14.00;97.20;;;;;;5013224;28;20050;-74
2022/05/25 07:33:39;;;;;;;125.70;113.75;;;14.00;97.30;;;;;;5006776;28;20051;-74
2022/05/25 07:36:10;;;;;;;127.35;115.18;;;14.00;97.10;;;;;;5008179;28;20501;-74
2022/05/25 07:38:40;;;;;;;125.80;114.10;;;14.20;96.60;;;;;;4992734;28;20137;-74
2022/05/25 07:41:08;;;;;;;127.60;115.70;;;14.20;96.40;;;;;;4993037;28;20126;-77
2022/05/25 07:43:35;;;;;;;126.93;114.97;;;14.20;96.30;;;;;;5008262;28;20063;-77
2022/05/25 07:46:04;;;;;;;126.05;114.25;;;14.30;96.40;;;;;;4994151;28;20050;-76
2022/05/25 07:48:30;;;;;;;124.13;112.68;;;14.40;96.20;;;;;;5009208;28;20059;-74
2022/05/25 07:50:58;;;;;;;125.45;113.90;;;14.40;96.30;;;;;;4994691;28;20104;-74
2022/05/25 07:56:09;;;;;;;122.45;111.07;;;14.50;96.00;;;;;;5000844;28;20058;-74
2022/05/25 07:58:36;;;;;;;123.82;112.03;;;14.60;95.30;;;;;;5016839;28;20050;-74
2022/05/25 08:01:10;;;;;;;123.82;112.28;;;14.60;95.40;;;;;;5005817;28;20061;-75
2022/05/25 08:06:38;;;;;;;123.20;111.70;;;14.80;94.60;;;;;;4972065;28;20163;-74
2022/05/25 08:09:04;;;;;;;123.00;111.32;;;14.80;94.60;;;;;;4980593;28;20166;-74
2022/05/25 08:11:35;;;;;;;123.13;111.32;;;14.90;94.70;;;;;;4984818;28;20569;-75
2022/05/25 08:14:01;;;;;;;125.15;113.60;;;14.90;95.00;;;;;;5005834;28;20133;-75
2022/05/25 08:16:30;;;;;;;125.88;114.05;;;15.00;95.00;;;;;;5000482;28;20061;-75
2022/05/25 08:18:57;;;;;;;126.97;115.35;;;15.10;95.20;;;;;;5004333;28;20141;-75
2022/05/25 08:21:24;;;;;;;126.07;114.47;;;15.10;94.40;;;;;;5000841;28;20381;-75
2022/05/25 08:24:01;;;;;;;127.22;115.55;;;15.20;94.40;;;;;;4999591;28;20062;-74
2022/05/25 08:26:29;;;;;;;125.57;113.93;;;15.30;94.10;;;;;;5005469;28;20173;-76
2022/05/25 08:28:56;;;;;;;125.57;113.80;;;15.30;94.20;;;;;;5008658;28;20062;-76
2022/05/25 08:31:22;;;;;;;126.60;114.97;;;15.30;94.60;;;;;;4989799;28;20917;-76
2022/05/25 08:33:51;;;;;;;127.15;115.18;;;15.40;94.30;;;;;;5007682;28;20051;-75
2022/05/25 08:36:18;;;;;;;125.20;113.53;;;15.40;93.80;;;;;;4998133;28;20054;-76
2022/05/25 08:38:45;;;;;;;126.63;114.80;;;15.50;93.70;;;;;;4996813;28;20085;-75
2022/05/25 08:41:11;;;;;;;123.97;112.55;;;15.50;93.70;;;;;;5007172;28;21101;-75
2022/05/25 08:43:43;;;;;;;124.15;112.65;;;15.60;93.60;;;;;;4999552;28;20094;-75
2022/05/25 08:46:14;;;;;;;125.20;113.60;;;15.60;93.30;;;;;;5000170;28;20543;-76
2022/05/25 08:48:41;;;;;;;124.72;113.25;;;15.60;93.30;;;;;;5002836;28;20936;-75
2022/05/25 08:51:14;;;;;;;123.15;111.85;;;15.60;93.50;;;;;;5001769;28;20142;-76
2022/05/25 08:53:41;;;;;;;125.38;113.75;;;15.70;93.60;;;;;;5001191;28;20050;-76
2022/05/25 08:56:18;;;;;;;123.72;112.47;;;15.70;93.60;;;;;;5021563;28;20144;-75
2022/05/25 08:58:47;;;;;;;123.25;112.03;;;15.70;93.70;;;;;;5004038;28;20050;-75
2022/05/25 09:01:21;;;;;;;124.88;113.07;;;15.80;93.30;;;;;;4998500;28;20151;-74
2022/05/25 09:03:56;;;;;;;122.72;111.40;;;15.90;93.00;;;;;;5017257;28;20061;-75
2022/05/25 09:06:32;;;;;;;125.65;113.68;;;16.00;92.50;;;;;;5004192;28;20091;-75
2022/05/25 09:09:04;;;;;;;125.47;113.97;;;16.00;93.00;;;;;;5019067;28;20073;-75
2022/05/25 09:11:38;;;;;;;125.47;114.07;;;16.00;93.00;;;;;;5019125;28;20057;-75
2022/05/25 09:14:11;;;;;;;125.93;113.63;;;16.10;92.40;;;;;;5001080;28;20596;-75
2022/05/25 09:16:38;;;;;;;124.05;112.55;;;16.20;92.20;;;;;;4998052;28;20161;-75
2022/05/25 09:19:09;;;;;;;122.63;111.60;;;16.20;92.10;;;;;;5009859;28;20054;-75
2022/05/25 09:21:48;;;;;;;122.82;111.45;;;16.20;91.60;;;;;;5012505;28;20423;-75
2022/05/25 09:24:18;;;;;;;122.18;111.07;;;16.30;91.10;;;;;;5012043;28;20056;-75
2022/05/25 09:26:46;;;;;;;124.47;113.15;;;16.30;91.10;;;;;;5000430;28;20051;-76
2022/05/25 09:29:13;;;;;;;124.07;112.97;;;16.30;90.90;;;;;;5005610;28;20070;-75
2022/05/25 09:31:46;;;;;;;123.97;112.78;;;16.30;91.00;;;;;;5004976;28;20057;-75
2022/05/25 09:34:23;;;;;;;123.50;112.30;;;16.30;90.90;;;;;;4994102;28;20055;-74
2022/05/25 09:36:57;;;;;;;124.32;113.07;;;16.30;91.00;;;;;;4994856;28;20057;-75
2022/05/25 09:39:26;;;;;;;123.80;112.55;;;16.30;91.20;;;;;;4992367;28;20146;-75
2022/05/25 09:41:57;;;;;;;124.15;112.72;;;16.30;91.10;;;;;;4991629;28;20401;-75
2022/05/25 09:44:23;;;;;;;123.75;112.45;;;16.40;90.30;;;;;;4992004;28;20137;-75
2022/05/25 09:46:55;;;;;;;123.80;112.43;;;16.40;90.10;;;;;;4992494;28;20242;-75
2022/05/25 09:49:38;;;;;;;125.05;113.72;;;16.40;90.40;;;;;;4996499;28;20054;-75
2022/05/25 09:52:14;;;;;;;124.13;112.63;;;16.40;90.50;;;;;;5001360;28;20057;-74
2022/05/25 09:54:46;;;;;;;124.03;112.63;;;16.40;90.80;;;;;;5002798;28;20082;-75
2022/05/25 09:57:24;;;;;;;126.10;114.68;;;16.40;90.90;;;;;;4996770;28;20051;-75
2022/05/25 10:00:00;;;;;;;125.22;114.03;;;16.50;91.50;;;;;;5003910;28;20057;-75
2022/05/25 10:02:32;;;;;;;124.10;113.00;;;16.50;91.60;;;;;;4983480;28;20109;-74
2022/05/25 10:05:12;;;;;;;123.55;112.55;;;16.60;91.70;;;;;;4998855;28;20126;-75
2022/05/25 10:07:50;;;;;;;122.82;111.63;;;16.60;90.70;;;;;;4999051;28;20049;-75
2022/05/25 10:10:26;;;;;;;121.78;110.90;;;16.70;88.60;;;;;;5015727;28;20066;-75
2022/05/25 10:13:02;;;;;;;122.30;111.10;;;16.70;87.90;;;;;;4999624;28;20509;-75
2022/05/25 10:15:31;;;;;;;121.72;110.72;;;16.80;85.60;;;;;;5005241;28;20082;-75
2022/05/25 10:17:59;;;;;;;120.80;109.93;;;16.90;85.10;;;;;;4999658;28;20054;-74
2022/05/25 10:20:28;;;;;;;121.15;110.20;;;16.80;86.20;;;;;;4998451;28;20086;-77
2022/05/25 10:23:04;;;;;;;124.85;113.65;;;16.90;86.30;;;;;;5002330;28;20086;-75
2022/05/25 10:25:37;;;;;;;123.13;111.72;;;16.90;85.70;;;;;;5024942;28;20520;-76
2022/05/25 10:28:18;;;;;;;122.03;110.88;;;16.80;86.30;;;;;;5004076;28;20051;-76
2022/05/25 10:39:24;;;;;;;121.95;110.85;;;16.90;85.10;;;;;;4992845;28;20047;-79
2022/05/25 10:42:06;;;;;;;122.10;111.07;;;16.90;85.80;;;;;;5001840;28;20528;-80
2022/05/25 10:44:47;;;;;;;122.25;111.18;;;16.90;84.60;;;;;;5004999;28;20050;-80
2022/05/25 10:47:25;;;;;;;122.10;111.10;;;16.90;83.80;;;;;;5007448;28;20073;-78
2022/05/25 10:49:53;;;;;;;125.00;113.57;;;17.00;82.20;;;;;;5028602;28;20077;-76
2022/05/25 10:52:25;;;;;;;121.75;110.15;;;17.10;81.90;;;;;;4996711;28;20059;-78
2022/05/25 10:54:55;;;;;;;121.10;110.07;;;17.20;77.70;;;;;;4994752;28;20738;-78
2022/05/25 10:57:48;;;;;;;121.97;110.88;;;17.30;76.50;;;;;;4994368;28;20171;-78
2022/05/25 11:00:19;;;;;;;124.32;113.13;;;17.30;76.40;;;;;;4994985;28;20105;-78
2022/05/25 11:03:22;;;;;;;122.22;111.20;;;17.40;76.70;;;;;;5014315;28;20559;-78
2022/05/25 11:05:56;;;;;;;123.13;112.15;;;17.40;75.90;;;;;;4995484;28;20046;-79
2022/05/25 11:08:36;;;;;;;125.70;114.32;;;17.40;76.90;;;;;;5013949;28;20055;-78
2022/05/25 11:11:16;;;;;;;123.43;112.13;;;17.50;77.30;;;;;;5001155;28;20047;-80
2022/05/25 11:14:19;;;;;;;121.78;110.68;;;17.50;77.50;;;;;;5010670;28;20134;-78
2022/05/25 11:16:55;;;;;;;121.87;110.47;;;17.50;76.00;;;;;;4971199;28;20130;-79
2022/05/25 11:19:40;;;;;;;122.57;111.57;;;17.50;77.00;;;;;;5027201;28;20059;-79
2022/05/25 11:22:24;;;;;;;123.72;112.63;;;17.50;77.10;;;;;;5002051;28;20059;-77
2022/05/25 11:25:04;;;;;;;123.60;112.43;;;17.60;75.90;;;;;;5007655;28;20064;-77
2022/05/25 11:27:46;;;;;;;123.63;112.63;;;17.70;77.20;;;;;;5001008;28;20054;-78
2022/05/25 11:30:19;;;;;;;123.43;112.13;;;17.70;74.80;;;;;;4998959;28;20047;-78
2022/05/25 11:33:02;;;;;;;123.43;112.35;;;17.70;75.80;;;;;;5001837;28;20141;-75
2022/05/25 11:35:48;;;;;;;123.97;112.93;;;17.70;75.30;;;;;;5010718;28;20711;-75
2022/05/25 11:38:34;;;;;;;122.28;111.38;;;17.70;73.70;;;;;;5002540;28;20086;-75
2022/05/25 11:41:17;;;;;;;123.60;112.50;;;17.70;73.50;;;;;;5005603;28;20133;-75
2022/05/25 11:44:18;;;;;;;124.53;113.22;;;17.60;73.20;;;;;;5006048;28;20050;-75
2022/05/25 11:46:47;;;;;;;125.90;114.70;;;17.50;74.50;;;;;;5013070;28;20910;-75
2022/05/25 11:49:41;;;;;;;121.28;110.55;;;17.40;74.40;;;;;;5002442;28;20055;-74
2022/05/25 11:52:23;;;;;;;121.78;110.78;;;17.40;74.10;;;;;;4994047;28;20047;-75
2022/05/25 11:55:00;;;;;;;124.22;113.20;;;17.30;74.50;;;;;;4995308;28;20134;-75
2022/05/25 11:57:35;;;;;;;126.45;114.95;;;17.30;76.60;;;;;;4995013;28;20057;-75
2022/05/25 12:00:21;;;;;;;128.80;116.70;;;17.20;81.60;;;;;;4993791;28;20066;-75
2022/05/25 12:03:13;;;;;;;129.07;117.28;;;16.90;84.40;;;;;;4993329;28;20142;-75
2022/05/25 12:05:53;;;;;;;127.45;116.00;;;16.60;87.70;;;;;;4993622;28;20784;-74
2022/05/25 12:08:36;;;;;;;126.45;115.15;;;16.40;90.10;;;;;;4993361;28;20584;-74
2022/05/25 12:11:10;;;;;;;126.88;115.50;;;16.20;90.80;;;;;;5004291;28;20053;-74
2022/05/25 12:13:44;;;;;;;124.13;113.03;;;16.20;92.00;;;;;;5030029;28;20145;-74
2022/05/25 12:16:19;;;;;;;125.53;114.38;;;16.20;92.30;;;;;;5014139;28;20047;-75
2022/05/25 12:18:55;;;;;;;126.57;114.95;;;16.10;92.60;;;;;;5013943;28;20093;-74
2022/05/25 12:21:25;;;;;;;125.75;113.90;;;16.20;92.60;;;;;;5014656;28;20054;-74
2022/05/25 12:23:57;;;;;;;125.50;113.90;;;16.20;93.00;;;;;;5013005;28;20061;-75
2022/05/25 12:26:27;;;;;;;125.47;113.93;;;16.30;92.80;;;;;;5013022;28;20057;-75
2022/05/25 12:29:22;;;;;;;123.32;112.18;;;16.30;93.20;;;;;;5012672;28;20054;-75
2022/05/25 12:31:55;;;;;;;121.78;110.43;;;16.50;92.60;;;;;;5013071;28;20077;-75
2022/05/25 12:34:50;;;;;;;117.20;106.30;;;16.60;91.70;;;;;;5014640;28;20081;-75
2022/05/25 12:37:27;;;;;;;120.88;109.78;;;16.70;89.60;;;;;;5028424;28;20050;-75
2022/05/25 12:39:57;;;;;;;119.68;108.57;;;16.80;86.80;;;;;;5013905;28;20062;-75
2022/05/25 12:42:44;;;;;;;120.50;109.40;;;16.80;84.60;;;;;;4995739;28;20553;-75
2022/05/25 12:48:33;;;;;;;119.47;108.40;;;16.90;84.70;;;;;;5012752;28;20141;-75
2022/05/25 12:51:05;;;;;;;120.53;109.25;;;16.80;86.40;;;;;;5012362;28;20979;-75
2022/05/25 12:53:35;;;;;;;118.75;108.05;;;16.90;85.60;;;;;;5011887;28;20050;-75
2022/05/25 12:56:06;;;;;;;121.10;109.55;;;16.90;86.30;;;;;;5011474;28;20329;-74
2022/05/25 12:58:43;;;;;;;120.43;109.40;;;16.90;87.10;;;;;;5019901;28;20057;-75